createdAt,value
2024-03-05T00:00:28.290Z,14.32
2024-03-05T00:02:56.685Z,13.68
2024-03-05T00:05:25.011Z,13.98
2024-03-05T00:07:54.314Z,13.60
2024-03-05T00:10:23.075Z,14.02
2024-03-05T00:12:51.439Z,13.45
2024-03-05T00:15:21.327Z,12.95
2024-03-05T00:17:49.701Z,13.20
2024-03-05T00:20:20.576Z,13.88
2024-03-05T00:22:49.879Z,13.82
2024-03-05T00:25:18.926Z,13.68
2024-03-05T00:27:47.305Z,12.32
2024-03-05T00:30:16.609Z,12.65
2024-03-05T00:32:46.627Z,14.63
2024-03-05T00:35:15.190Z,13.77
2024-03-05T00:37:43.914Z,13.55
2024-03-05T00:40:14.490Z,14.45
2024-03-05T00:42:42.802Z,14.18
2024-03-05T00:45:13.460Z,14.65
2024-03-05T00:47:42.341Z,15.10
2024-03-05T00:50:14.373Z,14.00
2024-03-05T00:52:42.893Z,13.32
2024-03-05T00:55:10.385Z,13.48
2024-03-05T00:57:38.937Z,13.52
2024-03-05T01:00:08.356Z,13.35
2024-03-05T01:02:37.724Z,13.27
2024-03-05T01:05:10.871Z,15.18
2024-03-05T01:07:40.936Z,11.43
2024-03-05T01:10:10.813Z,11.90
2024-03-05T01:12:39.561Z,9.38
2024-03-05T01:15:08.528Z,9.30
2024-03-05T01:17:36.901Z,8.98
2024-03-05T01:20:05.733Z,10.48
2024-03-05T01:22:34.761Z,10.88
2024-03-05T01:25:04.690Z,10.30
2024-03-05T01:27:32.939Z,10.65
2024-03-05T01:30:01.523Z,11.57
2024-03-05T01:32:30.702Z,9.60
2024-03-05T01:34:59.092Z,11.13
2024-03-05T01:37:27.561Z,15.10
2024-03-05T01:39:55.951Z,13.40
2024-03-05T01:42:25.710Z,12.27
2024-03-05T01:44:54.131Z,14.10
2024-03-05T01:47:22.998Z,13.32
2024-03-05T01:49:51.609Z,14.20
2024-03-05T01:52:20.610Z,12.30
2024-03-05T01:54:50.135Z,13.02
2024-03-05T01:57:19.198Z,14.10
2024-03-05T01:59:48.893Z,13.13
2024-03-05T02:02:17.388Z,14.13
2024-03-05T02:04:47.143Z,12.88
2024-03-05T02:07:15.630Z,13.32
2024-03-05T02:09:44.015Z,13.30
2024-03-05T02:12:12.653Z,13.38
2024-03-05T02:14:41.840Z,14.60
2024-03-05T02:17:13.236Z,14.40
2024-03-05T02:19:48.062Z,14.32
2024-03-05T02:22:18.134Z,13.50
2024-03-05T02:24:46.428Z,14.02
2024-03-05T02:27:23.590Z,13.48
2024-03-05T02:29:56.065Z,13.43
2024-03-05T02:32:24.907Z,13.75
2024-03-05T02:34:55.382Z,13.05
2024-03-05T02:37:25.366Z,13.52
2024-03-05T02:39:53.934Z,13.43
2024-03-05T02:42:22.185Z,13.40
2024-03-05T02:44:50.583Z,14.57
2024-03-05T02:47:19.156Z,13.45
2024-03-05T02:49:47.476Z,8.52
2024-03-05T02:52:16.116Z,8.18
2024-03-05T02:54:46.680Z,6.93
2024-03-05T02:57:15.149Z,4.05
2024-03-05T02:59:43.620Z,5.57
2024-03-05T03:02:12.231Z,4.05
2024-03-05T03:04:40.624Z,6.03
2024-03-05T03:07:09.245Z,7.18
2024-03-05T03:09:37.552Z,7.03
2024-03-05T03:12:06.929Z,6.88
2024-03-05T03:14:35.234Z,7.20
2024-03-05T03:17:03.592Z,4.90
2024-03-05T03:19:33.167Z,7.05
2024-03-05T03:22:01.811Z,6.13
2024-03-05T03:24:30.110Z,6.18
2024-03-05T03:26:58.519Z,6.03
2024-03-05T03:29:28.273Z,7.78
2024-03-05T03:31:57.404Z,6.82
2024-03-05T03:34:25.812Z,4.80
2024-03-05T03:36:55.264Z,6.60
2024-03-05T03:39:26.032Z,6.28
2024-03-05T03:41:56.149Z,6.22
2024-03-05T03:44:24.993Z,5.93
2024-03-05T03:46:54.915Z,7.45
2024-03-05T03:49:25.991Z,4.63
2024-03-05T03:51:55.211Z,5.28
2024-03-05T03:54:25.438Z,5.22
2024-03-05T03:56:54.054Z,4.53
2024-03-05T03:59:22.648Z,4.50
2024-03-05T04:01:52.119Z,5.30
2024-03-05T04:04:22.302Z,3.55
2024-03-05T04:06:50.638Z,4.15
2024-03-05T04:09:19.531Z,5.03
2024-03-05T04:11:48.427Z,3.97
2024-03-05T04:14:18.111Z,4.55
2024-03-05T04:16:46.644Z,4.38
2024-03-05T04:19:15.112Z,4.32
2024-03-05T04:21:45.280Z,3.90
2024-03-05T04:24:14.842Z,2.97
2024-03-05T04:26:44.124Z,3.30
2024-03-05T04:29:18.009Z,3.30
2024-03-05T04:31:56.132Z,2.72
2024-03-05T04:34:24.636Z,3.47
2024-03-05T04:36:56.378Z,3.10
2024-03-05T04:39:26.343Z,3.42
2024-03-05T04:41:54.695Z,4.18
2024-03-05T04:44:25.588Z,2.90
2024-03-05T04:46:54.041Z,2.90
2024-03-05T04:49:22.419Z,3.38
2024-03-05T04:51:51.289Z,3.65
2024-03-05T04:54:22.014Z,2.85
2024-03-05T04:56:50.390Z,3.15
2024-03-05T04:59:18.768Z,3.38
2024-03-05T05:01:47.292Z,2.92
2024-03-05T05:04:15.859Z,3.10
2024-03-05T05:06:44.259Z,2.55
2024-03-05T05:09:12.618Z,2.22
2024-03-05T05:11:42.406Z,2.22
2024-03-05T05:14:12.215Z,1.90
2024-03-05T05:16:40.800Z,3.50
2024-03-05T05:19:12.096Z,3.28
2024-03-05T05:21:43.225Z,5.25
2024-03-05T05:24:11.626Z,3.17
2024-03-05T05:26:43.874Z,2.60
2024-03-05T05:29:17.590Z,3.42
2024-03-05T05:31:52.942Z,2.38
2024-03-05T05:34:21.270Z,2.00
2024-03-05T05:36:49.616Z,3.67
2024-03-05T05:39:18.403Z,4.50
2024-03-05T05:41:48.177Z,3.42
2024-03-05T05:44:16.424Z,4.00
2024-03-05T05:46:46.687Z,4.00
2024-03-05T05:49:20.995Z,4.15
2024-03-05T05:51:49.580Z,4.40
2024-03-05T05:54:20.630Z,3.92
2024-03-05T05:56:52.557Z,2.58
2024-03-05T05:59:20.899Z,3.20
2024-03-05T06:01:49.315Z,4.25
2024-03-05T06:04:17.991Z,3.38
2024-03-05T06:06:46.531Z,4.75
2024-03-05T06:09:16.886Z,3.58
2024-03-05T06:11:45.234Z,2.65
2024-03-05T06:14:14.990Z,3.08
2024-03-05T06:16:43.960Z,2.88
2024-03-05T06:19:12.317Z,3.35
2024-03-05T06:21:40.631Z,2.50
2024-03-05T06:24:09.151Z,2.50
2024-03-05T06:26:38.160Z,4.10
2024-03-05T06:29:07.837Z,2.50
2024-03-05T06:31:38.302Z,2.47
2024-03-05T06:34:10.821Z,3.40
2024-03-05T06:36:39.182Z,8.60
2024-03-05T06:39:19.300Z,5.05
2024-03-05T06:41:49.848Z,5.82
2024-03-05T06:44:23.051Z,5.32
2024-03-05T06:46:52.884Z,2.28
2024-03-05T06:49:28.336Z,2.00
2024-03-05T06:52:17.089Z,2.25
2024-03-05T06:55:11.122Z,1.50
2024-03-05T06:57:39.485Z,2.10
2024-03-05T07:00:16.736Z,2.38
2024-03-05T07:02:46.799Z,2.75
2024-03-05T07:05:15.191Z,3.67
2024-03-05T07:07:43.841Z,1.70
2024-03-05T07:10:32.557Z,1.90
2024-03-05T07:13:19.395Z,1.38
2024-03-05T07:16:10.414Z,1.70
2024-03-05T07:19:02.398Z,2.80
2024-03-05T07:21:51.603Z,2.13
2024-03-05T07:24:40.189Z,2.72
2024-03-05T07:27:29.784Z,2.38
2024-03-05T07:30:21.181Z,1.92
2024-03-05T07:33:10.504Z,2.42
2024-03-05T07:36:00.592Z,2.00
2024-03-05T07:38:49.326Z,2.13
2024-03-05T07:41:37.974Z,2.35
2024-03-05T07:44:26.593Z,2.00
2024-03-05T07:47:15.228Z,3.63
2024-03-05T07:50:04.075Z,3.60
2024-03-05T07:52:55.171Z,2.40
2024-03-05T07:55:46.980Z,2.83
2024-03-05T07:58:36.422Z,4.53
2024-03-05T08:01:25.642Z,2.85
2024-03-05T08:04:14.334Z,5.97
2024-03-05T08:07:02.997Z,4.82
2024-03-05T08:09:53.029Z,6.78
2024-03-05T08:12:43.541Z,5.07
2024-03-05T08:15:32.141Z,2.53
2024-03-05T08:18:20.817Z,2.50
2024-03-05T08:21:09.461Z,2.03
2024-03-05T08:23:58.105Z,2.30
2024-03-05T08:26:48.753Z,2.80
2024-03-05T08:29:40.592Z,2.67
2024-03-05T08:32:30.773Z,3.38
2024-03-05T08:35:19.500Z,2.65
2024-03-05T08:38:10.402Z,3.47
2024-03-05T08:41:00.165Z,3.33
2024-03-05T08:43:50.446Z,3.95
2024-03-05T08:46:39.106Z,3.45
2024-03-05T08:49:27.858Z,3.88
2024-03-05T08:52:17.078Z,3.88
2024-03-05T08:55:09.316Z,3.35
2024-03-05T08:57:58.723Z,3.97
2024-03-05T09:00:48.753Z,3.95
2024-03-05T09:03:38.869Z,4.28
2024-03-05T09:06:28.236Z,4.90
2024-03-05T09:09:17.238Z,2.60
2024-03-05T09:12:06.404Z,4.95
2024-03-05T09:14:55.042Z,5.43
2024-03-05T09:17:45.187Z,4.20
2024-03-05T09:20:33.922Z,4.40
2024-03-05T09:23:22.517Z,4.70
2024-03-05T09:26:11.542Z,3.90
2024-03-05T09:29:00.245Z,4.85
2024-03-05T09:31:48.955Z,3.97
2024-03-05T09:34:40.247Z,4.20
2024-03-05T09:37:29.539Z,4.28
2024-03-05T09:40:19.880Z,5.85
2024-03-05T09:43:09.567Z,7.65
2024-03-05T09:46:06.069Z,6.13
2024-03-05T09:48:55.513Z,4.30
2024-03-05T09:51:49.108Z,5.75
2024-03-05T09:54:37.843Z,5.57
2024-03-05T09:57:29.798Z,4.78
2024-03-05T10:00:20.187Z,5.40
2024-03-05T10:03:10.298Z,4.65
2024-03-05T10:05:59.413Z,5.28
2024-03-05T10:08:49.562Z,5.50
2024-03-05T10:11:38.806Z,5.07
2024-03-05T10:14:27.535Z,6.57
2024-03-05T10:17:16.206Z,7.18
2024-03-05T10:20:11.098Z,7.05
2024-03-05T10:23:01.311Z,7.13
2024-03-05T10:25:52.090Z,6.70
2024-03-05T10:28:41.328Z,5.55
2024-03-05T10:31:31.039Z,6.75
2024-03-05T10:34:20.183Z,6.05
2024-03-05T10:37:09.163Z,5.65
2024-03-05T10:39:58.217Z,7.82
2024-03-05T10:42:48.745Z,7.28
2024-03-05T10:45:41.653Z,6.80
2024-03-05T10:48:31.526Z,6.25
2024-03-05T10:51:23.373Z,5.47
2024-03-05T10:54:12.085Z,6.38
2024-03-05T10:57:00.780Z,7.57
2024-03-05T10:59:54.223Z,6.18
2024-03-05T11:02:43.133Z,7.05
2024-03-05T11:05:41.157Z,6.63
2024-03-05T11:08:30.338Z,6.22
2024-03-05T11:11:21.117Z,7.13
2024-03-05T11:14:11.551Z,7.07
2024-03-05T11:17:10.806Z,6.72
2024-03-05T11:20:01.335Z,6.05
2024-03-05T11:22:54.180Z,6.13
2024-03-05T11:25:47.924Z,6.25
2024-03-05T11:28:37.680Z,4.50
2024-03-05T11:31:30.001Z,5.95
2024-03-05T11:34:21.209Z,6.20
2024-03-05T11:37:13.956Z,5.70
2024-03-05T11:40:11.660Z,5.70
2024-03-05T11:43:01.068Z,3.95
2024-03-05T11:45:50.901Z,4.72
2024-03-05T11:48:39.728Z,5.25
2024-03-05T11:51:31.348Z,4.95
2024-03-05T11:54:24.874Z,6.43
2024-03-05T11:57:15.594Z,5.57
2024-03-05T12:00:15.851Z,5.28
2024-03-05T12:03:05.603Z,4.85
2024-03-05T12:05:55.309Z,6.32
2024-03-05T12:08:45.775Z,5.65
2024-03-05T12:11:36.320Z,5.78
2024-03-05T12:14:25.065Z,8.38
2024-03-05T12:17:15.318Z,9.00
2024-03-05T12:20:08.886Z,6.43
2024-03-05T12:22:57.766Z,5.82
2024-03-05T12:25:48.265Z,6.85
2024-03-05T12:28:38.290Z,7.03
2024-03-05T12:31:27.323Z,6.95
2024-03-05T12:34:17.450Z,5.25
2024-03-05T12:37:09.580Z,5.03
2024-03-05T12:40:06.204Z,5.43
2024-03-05T12:43:07.665Z,6.18
2024-03-05T12:46:01.492Z,6.35
2024-03-05T12:48:50.393Z,4.97
2024-03-05T12:51:39.754Z,5.70
2024-03-05T12:54:28.510Z,5.30
2024-03-05T12:57:25.959Z,5.50
2024-03-05T13:00:16.958Z,5.90
2024-03-05T13:03:06.544Z,4.43
2024-03-05T13:05:55.298Z,5.78
2024-03-05T13:08:48.676Z,6.25
2024-03-05T13:11:37.600Z,5.18
2024-03-05T13:14:27.133Z,6.28
2024-03-05T13:17:17.536Z,6.38
2024-03-05T13:20:43.391Z,6.47
2024-03-05T13:23:32.053Z,4.30
2024-03-05T13:26:20.805Z,4.75
2024-03-05T13:29:09.907Z,6.25
2024-03-05T13:31:38.615Z,6.10
2024-03-05T13:34:10.149Z,6.75
2024-03-05T13:36:39.645Z,5.53
2024-03-05T13:39:10.793Z,5.70
2024-03-05T13:41:40.091Z,4.10
2024-03-05T13:44:08.847Z,5.32
2024-03-05T13:46:39.125Z,5.78
2024-03-05T13:49:10.567Z,6.00
2024-03-05T13:51:39.145Z,7.00
2024-03-05T13:54:07.708Z,5.38
2024-03-05T13:56:36.081Z,6.38
2024-03-05T13:59:05.757Z,6.95
2024-03-05T14:01:34.488Z,6.28
2024-03-05T14:04:03.579Z,5.20
2024-03-05T14:06:33.583Z,5.75
2024-03-05T14:09:02.252Z,6.00
2024-03-05T14:11:30.666Z,6.18
2024-03-05T14:13:59.868Z,5.45
2024-03-05T14:16:28.665Z,5.22
2024-03-05T14:18:59.028Z,3.92
2024-03-05T14:21:31.589Z,5.45
2024-03-05T14:24:01.755Z,5.68
2024-03-05T14:26:30.101Z,7.32
2024-03-05T14:28:59.219Z,6.88
2024-03-05T14:31:27.779Z,6.57
2024-03-05T14:33:56.438Z,5.97
2024-03-05T14:36:25.875Z,4.28
2024-03-05T14:38:54.387Z,6.65
2024-03-05T14:41:24.688Z,7.10
2024-03-05T14:43:53.392Z,6.07
2024-03-05T14:46:22.026Z,6.45
2024-03-05T14:48:50.540Z,6.50
2024-03-05T14:51:18.890Z,8.80
2024-03-05T14:53:47.884Z,5.75
2024-03-05T14:56:16.527Z,5.35
2024-03-05T14:58:46.339Z,5.13
2024-03-05T15:01:15.058Z,5.07
2024-03-05T15:03:43.455Z,6.07
2024-03-05T15:06:12.717Z,6.28
2024-03-05T15:08:41.109Z,11.18
2024-03-05T15:11:09.698Z,5.55
2024-03-05T15:13:38.309Z,7.38
2024-03-05T15:16:11.590Z,5.10
2024-03-05T15:18:40.493Z,6.15
2024-03-05T15:21:15.192Z,7.10
2024-03-05T15:23:44.041Z,8.55
2024-03-05T15:26:12.771Z,7.63
2024-03-05T15:28:42.058Z,7.40
2024-03-05T15:31:13.032Z,7.60
2024-03-05T15:33:41.705Z,7.70
2024-03-05T15:36:11.450Z,8.68
2024-03-05T15:38:39.950Z,6.82
2024-03-05T15:41:10.748Z,7.28
2024-03-05T15:43:39.515Z,6.85
2024-03-05T15:46:07.952Z,8.90
2024-03-05T15:48:38.097Z,10.13
2024-03-05T15:51:07.293Z,7.22
2024-03-05T15:53:35.691Z,6.95
2024-03-05T15:56:13.574Z,13.60
2024-03-05T15:58:59.897Z,8.88
2024-03-05T16:01:28.501Z,9.18
2024-03-05T16:04:30.011Z,11.93
2024-03-05T16:06:59.995Z,9.88
2024-03-05T16:09:28.582Z,9.15
2024-03-05T16:11:57.156Z,9.07
2024-03-05T16:14:25.951Z,10.65
2024-03-05T16:16:54.594Z,10.45
2024-03-05T16:19:24.395Z,10.65
2024-03-05T16:21:55.264Z,12.02
2024-03-05T16:24:23.644Z,11.90
2024-03-05T16:26:52.001Z,13.90
2024-03-05T16:29:20.596Z,9.90
2024-03-05T16:31:48.966Z,7.53
2024-03-05T16:34:19.633Z,7.50
2024-03-05T16:36:49.873Z,9.13
2024-03-05T16:39:20.701Z,10.15
2024-03-05T16:41:49.128Z,9.70
2024-03-05T16:44:17.970Z,10.63
2024-03-05T16:46:47.559Z,11.15
2024-03-05T16:49:16.914Z,11.77
2024-03-05T16:51:45.340Z,11.27
2024-03-05T16:54:15.806Z,10.63
2024-03-05T16:56:45.063Z,11.05
2024-03-05T16:59:14.121Z,7.13
2024-03-05T17:01:42.625Z,8.68
2024-03-05T17:04:15.213Z,7.30
2024-03-05T17:06:44.405Z,8.60
2024-03-05T17:09:15.800Z,8.13
2024-03-05T17:11:45.766Z,8.90
2024-03-05T17:14:14.223Z,9.93
2024-03-05T17:16:46.165Z,9.15
2024-03-05T17:19:14.664Z,9.43
2024-03-05T17:21:43.053Z,10.75
2024-03-05T17:24:11.673Z,12.35
2024-03-05T17:26:42.088Z,12.95
2024-03-05T17:29:12.343Z,12.18
2024-03-05T17:31:40.832Z,11.60
2024-03-05T17:34:09.694Z,10.27
2024-03-05T17:36:38.402Z,8.30
2024-03-05T17:39:11.336Z,8.52
2024-03-05T17:41:41.137Z,9.48
2024-03-05T17:44:10.309Z,8.38
2024-03-05T17:46:39.673Z,8.40
2024-03-05T17:49:08.536Z,8.90
2024-03-05T17:51:37.705Z,11.68
2024-03-05T17:54:07.056Z,9.52
2024-03-05T17:56:35.510Z,9.40
2024-03-05T17:59:05.972Z,9.02
2024-03-05T18:01:36.381Z,9.40
2024-03-05T18:04:05.870Z,10.18
2024-03-05T18:06:34.165Z,8.90
2024-03-05T18:09:02.437Z,8.98
2024-03-05T18:11:30.924Z,8.63
2024-03-05T18:14:01.017Z,9.38
2024-03-05T18:16:30.945Z,8.30
2024-03-05T18:18:59.276Z,9.60
2024-03-05T18:21:27.692Z,9.07
2024-03-05T18:23:57.978Z,8.32
2024-03-05T18:26:27.707Z,7.90
2024-03-05T18:28:56.137Z,8.52
2024-03-05T18:31:31.001Z,8.48
2024-03-05T18:34:00.960Z,9.43
2024-03-05T18:36:29.679Z,8.20
2024-03-05T18:38:58.810Z,9.43
2024-03-05T18:41:27.326Z,8.23
2024-03-05T18:43:55.724Z,7.93
2024-03-05T18:46:25.851Z,8.15
2024-03-05T18:48:54.324Z,7.78
2024-03-05T18:51:24.018Z,7.20
2024-03-05T18:53:52.833Z,7.20
2024-03-05T18:56:21.262Z,7.05
2024-03-05T18:58:49.812Z,7.75
2024-03-05T19:01:18.894Z,7.30
2024-03-05T19:03:47.402Z,6.63
2024-03-05T19:06:19.094Z,6.93
2024-03-05T19:08:49.141Z,6.07
2024-03-05T19:11:17.761Z,7.13
2024-03-05T19:13:46.568Z,7.50
2024-03-05T19:16:15.342Z,7.90
2024-03-05T19:18:46.165Z,7.55
2024-03-05T19:21:16.308Z,8.18
2024-03-05T19:23:47.013Z,8.10
2024-03-05T19:26:17.215Z,8.23
2024-03-05T19:28:46.047Z,7.93
2024-03-05T19:31:14.800Z,7.00
2024-03-05T19:33:43.402Z,9.18
2024-03-05T19:36:13.638Z,9.73
2024-03-05T19:38:44.209Z,8.55
2024-03-05T19:41:13.031Z,7.68
2024-03-05T19:43:42.827Z,8.80
2024-03-05T19:46:11.481Z,9.32
2024-03-05T19:48:40.087Z,8.32
2024-03-05T19:51:11.518Z,9.48
2024-03-05T19:53:40.012Z,10.07
2024-03-05T19:56:10.369Z,12.13
2024-03-05T19:58:40.774Z,13.85
2024-03-05T20:01:11.825Z,10.25
2024-03-05T20:03:41.147Z,10.50
2024-03-05T20:06:10.557Z,10.10
2024-03-05T20:08:39.317Z,9.75
2024-03-05T20:11:12.355Z,10.55
2024-03-05T20:13:41.382Z,9.38
2024-03-05T20:16:11.442Z,8.95
2024-03-05T20:18:39.814Z,7.53
2024-03-05T20:21:09.818Z,8.20
2024-03-05T20:23:38.762Z,11.10
2024-03-05T20:26:09.173Z,11.25
2024-03-05T20:28:38.182Z,9.05
2024-03-05T20:31:08.717Z,8.02
2024-03-05T20:33:40.171Z,12.32
2024-03-05T20:36:10.137Z,9.88
2024-03-05T20:38:42.104Z,11.50
2024-03-05T20:41:13.872Z,12.38
2024-03-05T20:43:42.919Z,12.10
2024-03-05T20:46:12.124Z,8.30
2024-03-05T20:48:41.887Z,9.48
2024-03-05T20:51:10.229Z,8.15
2024-03-05T20:53:41.486Z,8.40
2024-03-05T20:56:10.376Z,8.57
2024-03-05T20:58:39.645Z,9.98
2024-03-05T21:01:09.568Z,9.20
2024-03-05T21:03:38.177Z,7.15
2024-03-05T21:06:08.424Z,7.60
2024-03-05T21:08:36.838Z,6.18
2024-03-05T21:11:05.755Z,6.50
2024-03-05T21:13:42.388Z,6.85
2024-03-05T21:16:13.364Z,9.38
2024-03-05T21:18:42.247Z,7.15
2024-03-05T21:21:15.029Z,6.70
2024-03-05T21:23:43.703Z,6.20
2024-03-05T21:26:27.426Z,6.25
2024-03-05T21:29:02.748Z,6.03
2024-03-05T21:31:35.925Z,6.47
2024-03-05T21:34:05.531Z,6.47
2024-03-05T21:36:37.325Z,5.22
2024-03-05T21:39:05.707Z,6.60
2024-03-05T21:41:34.249Z,5.68
2024-03-05T21:44:02.560Z,6.20
2024-03-05T21:46:31.235Z,6.55
2024-03-05T21:49:00.380Z,6.47
2024-03-05T21:51:31.044Z,6.07
2024-03-05T21:54:00.810Z,6.30
2024-03-05T21:56:29.292Z,6.13
2024-03-05T21:58:57.747Z,7.20
2024-03-05T22:01:26.024Z,5.55
2024-03-05T22:03:54.368Z,6.07
2024-03-05T22:06:24.885Z,6.32
2024-03-05T22:08:57.575Z,6.32
2024-03-05T22:11:28.774Z,8.38
2024-03-05T22:13:58.036Z,10.55
2024-03-05T22:16:26.485Z,7.85
2024-03-05T22:18:55.380Z,7.50
2024-03-05T22:21:23.778Z,8.70
2024-03-05T22:23:52.190Z,8.45
2024-03-05T22:26:20.631Z,7.47
2024-03-05T22:28:50.372Z,7.03
2024-03-05T22:31:18.865Z,5.40
2024-03-05T22:33:47.382Z,6.30
2024-03-05T22:36:15.911Z,7.03
2024-03-05T22:38:44.533Z,7.93
2024-03-05T22:41:13.189Z,6.55
2024-03-05T22:43:41.822Z,7.22
2024-03-05T22:46:11.917Z,7.63
2024-03-05T22:48:40.910Z,5.65
2024-03-05T22:51:10.552Z,7.28
2024-03-05T22:53:39.211Z,6.43
2024-03-05T22:56:09.465Z,6.45
2024-03-05T22:58:39.024Z,7.18
2024-03-05T23:01:07.900Z,8.38
2024-03-05T23:03:37.842Z,6.50
2024-03-05T23:06:15.191Z,6.45
2024-03-05T23:08:46.796Z,6.43
2024-03-05T23:11:16.127Z,8.85
2024-03-05T23:13:44.685Z,7.43
2024-03-05T23:16:14.528Z,6.20
2024-03-05T23:18:44.465Z,7.80
2024-03-05T23:21:12.987Z,8.10
2024-03-05T23:23:45.426Z,6.65
2024-03-05T23:26:13.903Z,8.10
2024-03-05T23:28:42.388Z,6.00
2024-03-05T23:31:11.229Z,8.75
2024-03-05T23:33:39.824Z,7.35
2024-03-05T23:36:10.241Z,6.63
2024-03-05T23:38:38.811Z,6.38
2024-03-05T23:41:16.618Z,6.32
2024-03-05T23:43:49.677Z,6.75
2024-03-05T23:46:18.185Z,5.97
2024-03-05T23:48:46.669Z,6.90
2024-03-05T23:51:16.953Z,6.13
2024-03-05T23:53:45.408Z,6.22
2024-03-05T23:56:15.069Z,6.97
2024-03-05T23:58:44.423Z,5.93
